sensor_id;sensor_type;location;lat;lon;timestamp;pressure;altitude;pressure_sealevel;temperature;humidity
36726;BME280;44936;52.086;5.150;2022-09-17T00:01:59;97808.16;;;12.06;100.00
36726;BME280;44936;52.086;5.150;2022-09-17T00:04:24;97843.53;;;12.16;100.00
36726;BME280;44936;52.086;5.150;2022-09-17T00:06:49;97773.63;;;12.14;100.00
36726;BME280;44936;52.086;5.150;2022-09-17T00:09:15;97704.28;;;12.16;100.00
36726;BME280;44936;52.086;5.150;2022-09-17T00:11:42;97671.75;;;12.03;100.00
36726;BME280;44936;52.086;5.150;2022-09-17T00:14:13;97646.06;;;12.24;100.00
36726;BME280;44936;52.086;5.150;2022-09-17T00:16:44;97627.06;;;12.19;100.00
36726;BME280;44936;52.086;5.150;2022-09-17T00:19:20;97571.06;;;12.18;100.00
36726;BME280;44936;52.086;5.150;2022-09-17T00:21:47;97537.94;;;12.00;100.00
36726;BME280;44936;52.086;5.150;2022-09-17T00:24:14;97536.31;;;11.98;100.00
36726;BME280;44936;52.086;5.150;2022-09-17T00:26:40;97543.47;;;12.11;100.00
36726;BME280;44936;52.086;5.150;2022-09-17T00:29:06;97480.28;;;12.29;100.00
36726;BME280;44936;52.086;5.150;2022-09-17T00:31:33;97434.09;;;12.25;100.00
36726;BME280;44936;52.086;5.150;2022-09-17T00:33:59;97376.28;;;12.25;100.00
36726;BME280;44936;52.086;5.150;2022-09-17T00:36:26;97365.97;;;12.22;100.00
36726;BME280;44936;52.086;5.150;2022-09-17T00:38:57;97431.50;;;12.09;100.00
36726;BME280;44936;52.086;5.150;2022-09-17T00:41:25;97561.25;;;12.06;100.00
36726;BME280;44936;52.086;5.150;2022-09-17T00:43:54;97659.16;;;11.93;100.00
36726;BME280;44936;52.086;5.150;2022-09-17T00:46:35;97712.06;;;12.02;100.00
36726;BME280;44936;52.086;5.150;2022-09-17T00:49:10;97704.25;;;12.01;100.00
36726;BME280;44936;52.086;5.150;2022-09-17T00:51:40;97755.34;;;11.95;100.00
36726;BME280;44936;52.086;5.150;2022-09-17T00:54:08;97779.66;;;11.99;100.00
36726;BME280;44936;52.086;5.150;2022-09-17T00:56:36;97824.31;;;11.99;100.00
36726;BME280;44936;52.086;5.150;2022-09-17T00:59:03;97737.84;;;12.11;100.00
36726;BME280;44936;52.086;5.150;2022-09-17T01:01:29;97612.59;;;12.12;100.00
36726;BME280;44936;52.086;5.150;2022-09-17T01:03:55;97499.03;;;12.07;100.00
36726;BME280;44936;52.086;5.150;2022-09-17T01:09:06;97360.09;;;12.02;100.00
36726;BME280;44936;52.086;5.150;2022-09-17T01:18:04;97446.03;;;11.84;100.00
36726;BME280;44936;52.086;5.150;2022-09-17T01:26:53;97467.00;;;12.00;100.00
36726;BME280;44936;52.086;5.150;2022-09-17T01:32:16;97359.41;;;11.99;100.00
36726;BME280;44936;52.086;5.150;2022-09-17T01:37:32;97400.41;;;12.01;100.00
36726;BME280;44936;52.086;5.150;2022-09-17T01:40:04;97410.66;;;12.06;100.00
36726;BME280;44936;52.086;5.150;2022-09-17T01:42:45;97380.00;;;12.06;100.00
36726;BME280;44936;52.086;5.150;2022-09-17T01:48:06;97521.69;;;11.94;100.00
36726;BME280;44936;52.086;5.150;2022-09-17T01:50:41;97608.00;;;12.00;100.00
36726;BME280;44936;52.086;5.150;2022-09-17T01:53:09;97671.13;;;11.98;100.00
36726;BME280;44936;52.086;5.150;2022-09-17T01:55:37;97715.72;;;11.82;100.00
36726;BME280;44936;52.086;5.150;2022-09-17T01:58:13;97814.16;;;11.74;100.00
36726;BME280;44936;52.086;5.150;2022-09-17T02:00:42;97850.56;;;11.81;100.00
36726;BME280;44936;52.086;5.150;2022-09-17T02:03:19;97806.56;;;11.86;100.00
36726;BME280;44936;52.086;5.150;2022-09-17T02:05:54;97706.06;;;11.83;100.00
36726;BME280;44936;52.086;5.150;2022-09-17T02:08:25;97649.84;;;11.87;100.00
36726;BME280;44936;52.086;5.150;2022-09-17T02:11:05;97565.28;;;11.80;100.00
36726;BME280;44936;52.086;5.150;2022-09-17T02:13:40;97548.50;;;11.83;100.00
36726;BME280;44936;52.086;5.150;2022-09-17T02:16:20;97523.28;;;11.80;100.00
36726;BME280;44936;52.086;5.150;2022-09-17T02:21:55;97490.47;;;11.72;100.00
36726;BME280;44936;52.086;5.150;2022-09-17T02:24:36;97524.97;;;11.81;100.00
36726;BME280;44936;52.086;5.150;2022-09-17T02:27:33;97521.22;;;11.70;100.00
36726;BME280;44936;52.086;5.150;2022-09-17T02:30:00;97533.03;;;11.94;100.00
36726;BME280;44936;52.086;5.150;2022-09-17T02:32:25;97521.16;;;11.87;100.00
36726;BME280;44936;52.086;5.150;2022-09-17T02:34:51;97515.41;;;11.96;100.00
36726;BME280;44936;52.086;5.150;2022-09-17T02:37:17;97517.66;;;11.71;100.00
36726;BME280;44936;52.086;5.150;2022-09-17T02:39:42;97636.03;;;11.66;100.00
36726;BME280;44936;52.086;5.150;2022-09-17T02:54:59;97696.25;;;11.86;100.00
36726;BME280;44936;52.086;5.150;2022-09-17T02:57:29;97604.00;;;11.93;100.00
36726;BME280;44936;52.086;5.150;2022-09-17T03:02:44;97308.22;;;12.06;100.00
36726;BME280;44936;52.086;5.150;2022-09-17T03:05:12;97215.72;;;12.01;100.00
36726;BME280;44936;52.086;5.150;2022-09-17T03:07:37;97168.25;;;11.75;100.00
36726;BME280;44936;52.086;5.150;2022-09-17T03:10:03;97125.03;;;11.81;100.00
36726;BME280;44936;52.086;5.150;2022-09-17T03:12:28;97127.97;;;11.75;100.00
36726;BME280;44936;52.086;5.150;2022-09-17T03:14:54;97114.16;;;11.87;100.00
36726;BME280;44936;52.086;5.150;2022-09-17T03:17:19;97106.25;;;11.73;100.00
36726;BME280;44936;52.086;5.150;2022-09-17T03:19:44;97080.09;;;11.71;100.00
36726;BME280;44936;52.086;5.150;2022-09-17T03:22:10;97032.03;;;11.85;100.00
36726;BME280;44936;52.086;5.150;2022-09-17T03:24:35;96970.41;;;11.76;100.00
36726;BME280;44936;52.086;5.150;2022-09-17T03:27:01;96909.19;;;11.76;100.00
36726;BME280;44936;52.086;5.150;2022-09-17T03:29:26;96857.19;;;11.68;100.00
36726;BME280;44936;52.086;5.150;2022-09-17T03:31:51;96789.44;;;11.73;100.00
36726;BME280;44936;52.086;5.150;2022-09-17T03:34:17;96728.69;;;11.67;100.00
36726;BME280;44936;52.086;5.150;2022-09-17T03:36:42;96654.09;;;11.56;100.00
36726;BME280;44936;52.086;5.150;2022-09-17T03:39:08;96657.28;;;11.49;100.00
36726;BME280;44936;52.086;5.150;2022-09-17T03:41:33;96636.34;;;11.47;100.00
36726;BME280;44936;52.086;5.150;2022-09-17T03:43:58;96603.63;;;11.53;100.00
36726;BME280;44936;52.086;5.150;2022-09-17T03:46:24;96531.53;;;11.58;100.00
36726;BME280;44936;52.086;5.150;2022-09-17T03:48:49;96456.56;;;11.54;100.00
36726;BME280;44936;52.086;5.150;2022-09-17T03:51:15;96408.75;;;11.51;100.00
36726;BME280;44936;52.086;5.150;2022-09-17T03:53:40;96316.78;;;11.52;100.00
36726;BME280;44936;52.086;5.150;2022-09-17T03:56:06;96280.28;;;11.49;100.00
36726;BME280;44936;52.086;5.150;2022-09-17T03:58:32;96205.88;;;11.50;100.00
36726;BME280;44936;52.086;5.150;2022-09-17T04:00:58;96153.84;;;11.44;100.00
36726;BME280;44936;52.086;5.150;2022-09-17T04:03:27;96129.13;;;11.24;100.00
36726;BME280;44936;52.086;5.150;2022-09-17T04:05:53;96153.75;;;11.11;100.00
36726;BME280;44936;52.086;5.150;2022-09-17T04:08:19;96231.25;;;11.15;100.00
36726;BME280;44936;52.086;5.150;2022-09-17T04:10:45;96315.63;;;11.20;100.00
36726;BME280;44936;52.086;5.150;2022-09-17T04:13:11;96369.56;;;11.24;100.00
36726;BME280;44936;52.086;5.150;2022-09-17T04:15:38;96425.16;;;11.16;100.00
36726;BME280;44936;52.086;5.150;2022-09-17T04:18:04;96454.50;;;11.21;100.00
36726;BME280;44936;52.086;5.150;2022-09-17T04:20:29;96495.66;;;11.08;100.00
36726;BME280;44936;52.086;5.150;2022-09-17T04:22:55;96500.38;;;11.16;100.00
36726;BME280;44936;52.086;5.150;2022-09-17T04:25:20;96487.47;;;11.00;100.00
36726;BME280;44936;52.086;5.150;2022-09-17T04:27:45;96468.38;;;11.23;100.00
36726;BME280;44936;52.086;5.150;2022-09-17T04:30:12;96389.78;;;11.22;100.00
36726;BME280;44936;52.086;5.150;2022-09-17T04:32:38;96277.50;;;11.16;100.00
36726;BME280;44936;52.086;5.150;2022-09-17T04:35:04;96205.63;;;11.18;100.00
36726;BME280;44936;52.086;5.150;2022-09-17T04:37:29;96126.13;;;11.18;100.00
36726;BME280;44936;52.086;5.150;2022-09-17T04:39:55;96026.97;;;11.23;100.00
36726;BME280;44936;52.086;5.150;2022-09-17T04:42:20;95891.09;;;11.17;100.00
36726;BME280;44936;52.086;5.150;2022-09-17T04:44:45;95823.16;;;11.25;100.00
36726;BME280;44936;52.086;5.150;2022-09-17T04:47:11;95754.19;;;11.13;100.00
36726;BME280;44936;52.086;5.150;2022-09-17T04:49:36;95663.69;;;11.19;100.00
36726;BME280;44936;52.086;5.150;2022-09-17T04:52:02;95643.38;;;11.00;100.00
36726;BME280;44936;52.086;5.150;2022-09-17T04:54:28;95598.47;;;11.04;100.00
36726;BME280;44936;52.086;5.150;2022-09-17T04:56:54;95629.63;;;10.87;100.00
36726;BME280;44936;52.086;5.150;2022-09-17T04:59:19;95667.97;;;10.88;100.00
36726;BME280;44936;52.086;5.150;2022-09-17T05:01:44;95693.06;;;11.01;100.00
36726;BME280;44936;52.086;5.150;2022-09-17T05:04:10;95692.84;;;10.93;100.00
36726;BME280;44936;52.086;5.150;2022-09-17T05:06:35;95710.75;;;10.88;100.00
36726;BME280;44936;52.086;5.150;2022-09-17T05:09:01;95706.28;;;11.00;100.00
36726;BME280;44936;52.086;5.150;2022-09-17T05:11:27;95720.25;;;10.89;100.00
36726;BME280;44936;52.086;5.150;2022-09-17T05:13:53;95708.94;;;10.89;100.00
36726;BME280;44936;52.086;5.150;2022-09-17T05:16:18;95713.59;;;10.85;100.00
36726;BME280;44936;52.086;5.150;2022-09-17T05:18:44;95744.81;;;10.88;100.00
36726;BME280;44936;52.086;5.150;2022-09-17T05:21:10;95769.81;;;10.81;100.00
36726;BME280;44936;52.086;5.150;2022-09-17T05:23:35;95814.34;;;10.92;100.00
36726;BME280;44936;52.086;5.150;2022-09-17T05:26:00;95841.28;;;10.83;100.00
36726;BME280;44936;52.086;5.150;2022-09-17T05:28:27;95944.19;;;10.74;100.00
36726;BME280;44936;52.086;5.150;2022-09-17T05:30:52;96072.81;;;10.71;100.00
36726;BME280;44936;52.086;5.150;2022-09-17T05:33:17;96239.69;;;10.58;100.00
36726;BME280;44936;52.086;5.150;2022-09-17T05:35:44;96386.06;;;10.49;100.00
36726;BME280;44936;52.086;5.150;2022-09-17T05:38:10;96531.22;;;10.60;100.00
36726;BME280;44936;52.086;5.150;2022-09-17T05:40:35;96668.59;;;10.56;100.00
36726;BME280;44936;52.086;5.150;2022-09-17T05:43:04;96775.09;;;10.57;100.00
36726;BME280;44936;52.086;5.150;2022-09-17T05:45:31;96882.81;;;10.52;100.00
36726;BME280;44936;52.086;5.150;2022-09-17T05:47:59;96973.03;;;10.62;100.00
36726;BME280;44936;52.086;5.150;2022-09-17T05:50:25;97009.25;;;10.70;100.00
36726;BME280;44936;52.086;5.150;2022-09-17T05:52:51;97058.78;;;10.74;100.00
36726;BME280;44936;52.086;5.150;2022-09-17T05:55:18;97100.72;;;10.74;100.00
36726;BME280;44936;52.086;5.150;2022-09-17T05:57:44;97133.31;;;10.85;100.00
36726;BME280;44936;52.086;5.150;2022-09-17T06:00:09;97114.03;;;10.86;100.00
36726;BME280;44936;52.086;5.150;2022-09-17T06:02:36;97091.03;;;10.91;100.00
36726;BME280;44936;52.086;5.150;2022-09-17T06:05:02;97037.22;;;10.99;100.00
36726;BME280;44936;52.086;5.150;2022-09-17T06:07:28;97015.75;;;10.93;100.00
36726;BME280;44936;52.086;5.150;2022-09-17T06:09:53;96950.88;;;10.82;100.00
36726;BME280;44936;52.086;5.150;2022-09-17T06:12:19;96958.56;;;10.99;100.00
36726;BME280;44936;52.086;5.150;2022-09-17T06:14:44;96942.63;;;11.02;100.00
36726;BME280;44936;52.086;5.150;2022-09-17T06:17:09;96912.31;;;10.98;100.00
36726;BME280;44936;52.086;5.150;2022-09-17T06:19:34;96860.03;;;11.10;100.00
36726;BME280;44936;52.086;5.150;2022-09-17T06:22:00;96858.28;;;10.96;100.00
36726;BME280;44936;52.086;5.150;2022-09-17T06:24:26;96819.03;;;11.09;100.00
36726;BME280;44936;52.086;5.150;2022-09-17T06:26:52;96759.25;;;11.14;100.00
36726;BME280;44936;52.086;5.150;2022-09-17T06:29:19;96681.22;;;11.17;100.00
36726;BME280;44936;52.086;5.150;2022-09-17T06:31:46;96598.88;;;11.20;100.00
36726;BME280;44936;52.086;5.150;2022-09-17T06:34:12;96510.44;;;11.22;100.00
36726;BME280;44936;52.086;5.150;2022-09-17T06:36:38;96478.78;;;11.25;100.00
36726;BME280;44936;52.086;5.150;2022-09-17T06:39:03;96402.28;;;11.31;100.00
36726;BME280;44936;52.086;5.150;2022-09-17T06:41:28;96333.97;;;11.32;100.00
36726;BME280;44936;52.086;5.150;2022-09-17T06:43:54;96265.66;;;11.34;100.00
36726;BME280;44936;52.086;5.150;2022-09-17T06:46:19;96220.34;;;11.32;100.00
36726;BME280;44936;52.086;5.150;2022-09-17T06:48:45;96190.59;;;11.20;100.00
36726;BME280;44936;52.086;5.150;2022-09-17T06:51:11;96162.66;;;11.32;100.00
36726;BME280;44936;52.086;5.150;2022-09-17T06:53:37;96123.53;;;11.29;100.00
36726;BME280;44936;52.086;5.150;2022-09-17T06:56:04;96088.13;;;11.34;100.00
36726;BME280;44936;52.086;5.150;2022-09-17T06:58:30;96065.13;;;11.38;100.00
36726;BME280;44936;52.086;5.150;2022-09-17T07:00:59;96014.25;;;11.41;100.00
36726;BME280;44936;52.086;5.150;2022-09-17T07:03:26;96018.88;;;11.37;100.00
36726;BME280;44936;52.086;5.150;2022-09-17T07:05:52;96067.88;;;11.48;100.00
36726;BME280;44936;52.086;5.150;2022-09-17T07:08:17;96137.03;;;11.35;100.00
36726;BME280;44936;52.086;5.150;2022-09-17T07:10:42;96227.59;;;11.52;100.00
36726;BME280;44936;52.086;5.150;2022-09-17T07:13:08;96287.41;;;11.47;100.00
36726;BME280;44936;52.086;5.150;2022-09-17T07:15:33;96386.66;;;11.66;100.00
36726;BME280;44936;52.086;5.150;2022-09-17T07:17:59;96481.31;;;11.63;100.00
36726;BME280;44936;52.086;5.150;2022-09-17T07:20:26;96561.19;;;11.72;100.00
36726;BME280;44936;52.086;5.150;2022-09-17T07:22:58;96634.19;;;11.67;100.00
36726;BME280;44936;52.086;5.150;2022-09-17T07:25:24;96690.22;;;11.66;100.00
36726;BME280;44936;52.086;5.150;2022-09-17T07:27:50;96749.84;;;11.63;100.00
36726;BME280;44936;52.086;5.150;2022-09-17T07:30:16;96752.31;;;11.79;100.00
36726;BME280;44936;52.086;5.150;2022-09-17T07:32:41;96740.63;;;11.71;100.00
36726;BME280;44936;52.086;5.150;2022-09-17T07:35:07;96725.78;;;11.84;100.00
36726;BME280;44936;52.086;5.150;2022-09-17T07:37:32;96744.16;;;11.84;100.00
36726;BME280;44936;52.086;5.150;2022-09-17T07:39:58;96844.00;;;11.55;100.00
36726;BME280;44936;52.086;5.150;2022-09-17T07:42:24;97024.41;;;11.80;100.00
36726;BME280;44936;52.086;5.150;2022-09-17T07:44:49;97087.44;;;11.80;100.00
36726;BME280;44936;52.086;5.150;2022-09-17T07:47:15;97170.41;;;11.83;100.00
36726;BME280;44936;52.086;5.150;2022-09-17T07:49:40;97215.63;;;11.88;100.00
36726;BME280;44936;52.086;5.150;2022-09-17T07:52:05;97279.22;;;11.93;100.00
36726;BME280;44936;52.086;5.150;2022-09-17T07:54:32;97352.56;;;11.96;100.00
36726;BME280;44936;52.086;5.150;2022-09-17T07:56:58;97456.44;;;12.02;100.00
36726;BME280;44936;52.086;5.150;2022-09-17T07:59:24;97550.22;;;12.15;100.00
36726;BME280;44936;52.086;5.150;2022-09-17T08:01:49;97637.25;;;12.25;100.00
36726;BME280;44936;52.086;5.150;2022-09-17T08:04:14;97678.72;;;12.36;100.00
36726;BME280;44936;52.086;5.150;2022-09-17T08:06:40;97735.53;;;12.38;100.00
36726;BME280;44936;52.086;5.150;2022-09-17T08:09:05;97801.16;;;12.40;100.00
36726;BME280;44936;52.086;5.150;2022-09-17T08:11:32;97920.59;;;12.34;100.00
36726;BME280;44936;52.086;5.150;2022-09-17T08:13:57;98048.78;;;12.29;100.00
36726;BME280;44936;52.086;5.150;2022-09-17T08:16:23;98096.84;;;12.31;100.00
36726;BME280;44936;52.086;5.150;2022-09-17T08:18:53;98177.19;;;12.37;100.00
36726;BME280;44936;52.086;5.150;2022-09-17T08:21:19;98219.59;;;12.48;100.00
36726;BME280;44936;52.086;5.150;2022-09-17T08:23:44;98255.25;;;12.54;100.00
36726;BME280;44936;52.086;5.150;2022-09-17T08:26:15;98254.28;;;12.56;100.00
36726;BME280;44936;52.086;5.150;2022-09-17T08:28:45;98334.72;;;12.60;100.00
36726;BME280;44936;52.086;5.150;2022-09-17T08:31:12;98361.88;;;12.80;100.00
36726;BME280;44936;52.086;5.150;2022-09-17T08:33:38;98395.03;;;12.84;100.00
36726;BME280;44936;52.086;5.150;2022-09-17T08:36:06;98471.97;;;12.89;100.00
36726;BME280;44936;52.086;5.150;2022-09-17T08:38:34;98529.19;;;12.63;100.00
36726;BME280;44936;52.086;5.150;2022-09-17T08:43:45;98527.53;;;12.18;100.00
36726;BME280;44936;52.086;5.150;2022-09-17T08:46:13;98469.50;;;12.03;100.00
36726;BME280;44936;52.086;5.150;2022-09-17T08:48:54;98343.72;;;11.95;100.00
36726;BME280;44936;52.086;5.150;2022-09-17T08:55:11;98071.59;;;11.91;100.00
36726;BME280;44936;52.086;5.150;2022-09-17T08:57:20;97881.72;;;12.06;100.00
36726;BME280;44936;52.086;5.150;2022-09-17T09:00:09;97694.72;;;12.15;100.00
36726;BME280;44936;52.086;5.150;2022-09-17T09:03:07;97571.84;;;12.21;100.00
36726;BME280;44936;52.086;5.150;2022-09-17T09:05:49;97455.63;;;12.31;100.00
36726;BME280;44936;52.086;5.150;2022-09-17T09:08:40;97394.31;;;12.31;100.00
36726;BME280;44936;52.086;5.150;2022-09-17T09:11:15;97361.66;;;12.35;100.00
36726;BME280;44936;52.086;5.150;2022-09-17T09:13:48;97379.97;;;12.36;100.00
36726;BME280;44936;52.086;5.150;2022-09-17T09:16:17;97385.06;;;12.39;100.00
36726;BME280;44936;52.086;5.150;2022-09-17T09:18:43;97330.50;;;12.29;100.00
36726;BME280;44936;52.086;5.150;2022-09-17T09:22:23;97382.22;;;12.28;100.00
36726;BME280;44936;52.086;5.150;2022-09-17T09:24:25;97420.38;;;12.19;100.00
36726;BME280;44936;52.086;5.150;2022-09-17T09:30:34;97405.78;;;12.30;100.00
36726;BME280;44936;52.086;5.150;2022-09-17T09:33:12;97316.81;;;12.38;100.00
36726;BME280;44936;52.086;5.150;2022-09-17T09:35:40;97286.75;;;12.28;100.00
36726;BME280;44936;52.086;5.150;2022-09-17T09:38:26;97278.13;;;12.26;100.00
36726;BME280;44936;52.086;5.150;2022-09-17T09:41:12;97286.31;;;12.21;100.00
36726;BME280;44936;52.086;5.150;2022-09-17T09:43:44;97294.56;;;12.29;100.00
36726;BME280;44936;52.086;5.150;2022-09-17T09:52:12;97162.41;;;12.56;100.00
36726;BME280;44936;52.086;5.150;2022-09-17T09:57:49;97271.00;;;12.56;100.00
36726;BME280;44936;52.086;5.150;2022-09-17T10:02:52;97489.25;;;12.85;100.00
36726;BME280;44936;52.086;5.150;2022-09-17T10:05:19;97557.59;;;13.00;100.00
36726;BME280;44936;52.086;5.150;2022-09-17T10:07:45;97611.56;;;13.08;100.00
36726;BME280;44936;52.086;5.150;2022-09-17T10:10:11;97672.53;;;13.14;100.00
36726;BME280;44936;52.086;5.150;2022-09-17T10:12:36;97723.06;;;13.21;100.00
36726;BME280;44936;52.086;5.150;2022-09-17T10:15:26;97866.28;;;13.17;100.00
36726;BME280;44936;52.086;5.150;2022-09-17T10:18:16;98000.28;;;13.21;100.00
36726;BME280;44936;52.086;5.150;2022-09-17T10:21:17;98104.63;;;13.22;100.00
36726;BME280;44936;52.086;5.150;2022-09-17T10:23:43;98197.00;;;13.16;100.00
36726;BME280;44936;52.086;5.150;2022-09-17T10:26:20;98205.41;;;13.24;100.00
36726;BME280;44936;52.086;5.150;2022-09-17T10:28:50;98290.84;;;13.17;100.00
36726;BME280;44936;52.086;5.150;2022-09-17T10:31:16;98324.66;;;13.26;100.00
36726;BME280;44936;52.086;5.150;2022-09-17T10:34:00;98363.69;;;13.17;100.00
36726;BME280;44936;52.086;5.150;2022-09-17T10:36:40;98474.75;;;13.25;100.00
36726;BME280;44936;52.086;5.150;2022-09-17T10:41:58;98567.72;;;13.46;100.00
36726;BME280;44936;52.086;5.150;2022-09-17T10:44:30;98603.09;;;13.59;100.00
36726;BME280;44936;52.086;5.150;2022-09-17T10:47:04;98607.00;;;13.71;100.00
36726;BME280;44936;52.086;5.150;2022-09-17T10:52:38;98700.06;;;13.71;100.00
36726;BME280;44936;52.086;5.150;2022-09-17T10:55:45;98718.50;;;13.71;100.00
36726;BME280;44936;52.086;5.150;2022-09-17T11:01:28;98846.75;;;13.69;100.00
36726;BME280;44936;52.086;5.150;2022-09-17T11:09:48;98882.09;;;13.85;100.00
36726;BME280;44936;52.086;5.150;2022-09-17T11:26:12;98961.69;;;14.15;100.00
36726;BME280;44936;52.086;5.150;2022-09-17T11:31:52;99192.69;;;14.20;100.00
36726;BME280;44936;52.086;5.150;2022-09-17T11:34:21;99193.16;;;14.07;100.00
36726;BME280;44936;52.086;5.150;2022-09-17T11:37:25;99304.63;;;14.11;100.00
36726;BME280;44936;52.086;5.150;2022-09-17T11:42:24;99495.78;;;14.24;100.00
36726;BME280;44936;52.086;5.150;2022-09-17T11:45:20;99551.63;;;14.37;100.00
36726;BME280;44936;52.086;5.150;2022-09-17T11:47:52;99514.94;;;14.29;100.00
36726;BME280;44936;52.086;5.150;2022-09-17T11:50:24;99563.69;;;14.44;100.00
36726;BME280;44936;52.086;5.150;2022-09-17T11:53:09;99598.59;;;14.54;100.00
36726;BME280;44936;52.086;5.150;2022-09-17T11:55:45;99626.19;;;14.70;100.00
36726;BME280;44936;52.086;5.150;2022-09-17T11:58:39;99608.13;;;14.84;100.00
36726;BME280;44936;52.086;5.150;2022-09-17T12:01:11;99604.19;;;14.96;100.00
36726;BME280;44936;52.086;5.150;2022-09-17T12:03:54;99624.88;;;15.08;100.00
36726;BME280;44936;52.086;5.150;2022-09-17T12:06:51;99653.00;;;15.11;100.00
36726;BME280;44936;52.086;5.150;2022-09-17T12:09:18;99659.69;;;15.19;100.00
36726;BME280;44936;52.086;5.150;2022-09-17T12:11:54;99656.84;;;15.00;100.00
36726;BME280;44936;52.086;5.150;2022-09-17T12:14:43;99666.84;;;14.91;100.00
36726;BME280;44936;52.086;5.150;2022-09-17T12:17:41;99640.00;;;14.78;100.00
36726;BME280;44936;52.086;5.150;2022-09-17T12:20:27;99617.56;;;14.65;100.00
36726;BME280;44936;52.086;5.150;2022-09-17T12:22:57;99642.94;;;14.69;100.00
36726;BME280;44936;52.086;5.150;2022-09-17T12:25:34;99676.34;;;14.70;100.00
36726;BME280;44936;52.086;5.150;2022-09-17T12:28:10;99748.34;;;14.73;100.00
36726;BME280;44936;52.086;5.150;2022-09-17T12:30:42;99751.78;;;14.77;100.00
36726;BME280;44936;52.086;5.150;2022-09-17T12:41:35;99807.78;;;14.87;100.00
36726;BME280;44936;52.086;5.150;2022-09-17T12:46:57;99814.28;;;14.75;100.00
36726;BME280;44936;52.086;5.150;2022-09-17T12:52:03;99854.09;;;14.69;100.00
36726;BME280;44936;52.086;5.150;2022-09-17T13:00:24;99793.47;;;14.66;100.00
36726;BME280;44936;52.086;5.150;2022-09-17T13:03:03;99766.06;;;14.70;100.00
36726;BME280;44936;52.086;5.150;2022-09-17T13:05:42;99756.84;;;14.55;100.00
36726;BME280;44936;52.086;5.150;2022-09-17T13:11:28;99847.91;;;14.98;100.00
36726;BME280;44936;52.086;5.150;2022-09-17T13:17:06;99884.03;;;14.97;100.00
36726;BME280;44936;52.086;5.150;2022-09-17T13:20:01;99889.31;;;14.97;100.00
36726;BME280;44936;52.086;5.150;2022-09-17T13:22:31;99878.84;;;14.94;100.00
36726;BME280;44936;52.086;5.150;2022-09-17T13:25:09;99910.16;;;15.07;100.00
36726;BME280;44936;52.086;5.150;2022-09-17T13:27:39;99912.84;;;15.05;100.00
36726;BME280;44936;52.086;5.150;2022-09-17T13:30:09;99931.44;;;15.00;100.00
36726;BME280;44936;52.086;5.150;2022-09-17T13:40:24;99970.50;;;14.89;100.00
36726;BME280;44936;52.086;5.150;2022-09-17T13:42:55;99978.81;;;15.07;100.00
36726;BME280;44936;52.086;5.150;2022-09-17T13:45:23;99978.38;;;15.22;100.00
36726;BME280;44936;52.086;5.150;2022-09-17T13:47:52;99968.41;;;15.32;100.00
36726;BME280;44936;52.086;5.150;2022-09-17T13:50:39;99985.59;;;15.45;100.00
36726;BME280;44936;52.086;5.150;2022-09-17T13:55:46;99989.72;;;15.55;100.00
36726;BME280;44936;52.086;5.150;2022-09-17T14:05:56;100014.72;;;15.43;100.00
36726;BME280;44936;52.086;5.150;2022-09-17T14:08:30;100021.72;;;15.44;100.00
36726;BME280;44936;52.086;5.150;2022-09-17T14:19:24;100013.53;;;15.83;100.00
36726;BME280;44936;52.086;5.150;2022-09-17T14:24:22;100014.59;;;15.77;100.00
36726;BME280;44936;52.086;5.150;2022-09-17T14:32:15;99998.50;;;15.26;100.00
36726;BME280;44936;52.086;5.150;2022-09-17T14:34:41;100004.59;;;15.28;100.00
36726;BME280;44936;52.086;5.150;2022-09-17T14:37:11;99979.25;;;15.22;100.00
36726;BME280;44936;52.086;5.150;2022-09-17T14:39:39;99947.13;;;15.07;100.00
36726;BME280;44936;52.086;5.150;2022-09-17T14:42:12;99939.25;;;15.05;100.00
36726;BME280;44936;52.086;5.150;2022-09-17T14:44:48;99927.03;;;14.71;100.00
36726;BME280;44936;52.086;5.150;2022-09-17T14:47:19;99929.06;;;14.62;100.00
36726;BME280;44936;52.086;5.150;2022-09-17T14:49:44;99933.84;;;14.49;100.00
36726;BME280;44936;52.086;5.150;2022-09-17T14:52:27;99917.09;;;14.49;100.00
36726;BME280;44936;52.086;5.150;2022-09-17T14:57:40;99940.94;;;14.45;100.00
36726;BME280;44936;52.086;5.150;2022-09-17T15:00:15;99925.28;;;14.38;100.00
36726;BME280;44936;52.086;5.150;2022-09-17T15:02:43;99946.78;;;14.57;100.00
36726;BME280;44936;52.086;5.150;2022-09-17T15:05:22;99950.59;;;14.47;100.00
36726;BME280;44936;52.086;5.150;2022-09-17T15:07:49;100021.38;;;14.63;100.00
36726;BME280;44936;52.086;5.150;2022-09-17T15:10:17;100047.63;;;14.69;100.00
36726;BME280;44936;52.086;5.150;2022-09-17T15:12:44;100071.25;;;14.74;100.00
36726;BME280;44936;52.086;5.150;2022-09-17T15:15:17;100050.47;;;14.62;100.00
36726;BME280;44936;52.086;5.150;2022-09-17T15:17:43;100068.03;;;14.63;100.00
36726;BME280;44936;52.086;5.150;2022-09-17T15:20:16;100083.78;;;14.66;100.00
36726;BME280;44936;52.086;5.150;2022-09-17T15:22:42;100071.50;;;14.65;100.00
36726;BME280;44936;52.086;5.150;2022-09-17T15:25:16;100068.06;;;14.61;100.00
36726;BME280;44936;52.086;5.150;2022-09-17T15:27:45;100074.78;;;14.73;100.00
36726;BME280;44936;52.086;5.150;2022-09-17T15:30:15;100056.41;;;14.70;100.00
36726;BME280;44936;52.086;5.150;2022-09-17T15:32:53;100075.34;;;14.86;100.00
36726;BME280;44936;52.086;5.150;2022-09-17T15:35:27;100056.72;;;14.90;100.00
36726;BME280;44936;52.086;5.150;2022-09-17T15:38:02;100058.22;;;15.00;100.00
36726;BME280;44936;52.086;5.150;2022-09-17T15:40:40;100043.16;;;15.04;100.00
36726;BME280;44936;52.086;5.150;2022-09-17T15:45:43;100061.25;;;15.18;100.00
36726;BME280;44936;52.086;5.150;2022-09-17T15:50:54;100075.03;;;15.29;100.00
36726;BME280;44936;52.086;5.150;2022-09-17T15:53:30;100097.22;;;15.23;100.00